createdAt,value
2022-11-23T00:04:19.509Z,5.53
2022-11-23T00:14:22.139Z,5.15
2022-11-23T00:24:26.127Z,8.23
2022-11-23T00:34:28.741Z,6.75
2022-11-23T00:44:32.729Z,8.63
2022-11-23T00:54:35.440Z,8.15
2022-11-23T01:04:40.765Z,9.75
2022-11-23T01:14:43.421Z,6.15
2022-11-23T01:24:47.447Z,9.02
2022-11-23T01:34:50.098Z,6.85
2022-11-23T01:45:08.093Z,7.35
2022-11-23T01:55:10.817Z,6.93
2022-11-23T02:05:16.915Z,7.38
2022-11-23T02:15:19.583Z,7.93
2022-11-23T02:25:34.345Z,8.40
2022-11-23T02:35:50.054Z,6.85
2022-11-23T02:45:55.537Z,14.48
2022-11-23T02:55:59.508Z,9.18
2022-11-23T03:06:02.106Z,13.70
2022-11-23T03:16:06.790Z,8.00
2022-11-23T03:26:12.869Z,7.07
2022-11-23T03:36:17.390Z,11.32
2022-11-23T03:46:20.559Z,12.23
2022-11-23T03:56:24.596Z,9.32
2022-11-23T04:06:27.258Z,10.05
2022-11-23T04:16:31.274Z,9.52
2022-11-23T04:26:33.942Z,13.38
2022-11-23T04:36:38.046Z,10.18
2022-11-23T04:46:40.771Z,14.20
2022-11-23T04:56:44.764Z,11.55
2022-11-23T05:06:47.542Z,12.82
2022-11-23T05:16:51.514Z,19.17
2022-11-23T05:26:56.360Z,21.10
2022-11-23T05:37:00.530Z,20.02
2022-11-23T05:47:03.182Z,27.00
2022-11-23T05:57:07.171Z,18.67
2022-11-23T06:07:09.841Z,20.48
2022-11-23T06:17:13.863Z,16.75
2022-11-23T06:27:18.234Z,18.83
2022-11-23T06:37:23.677Z,18.98
2022-11-23T06:47:26.802Z,16.77
2022-11-23T06:57:33.606Z,14.20
2022-11-23T07:07:36.446Z,17.88
2022-11-23T07:17:45.030Z,19.40
2022-11-23T07:27:47.636Z,13.43
2022-11-23T07:37:51.628Z,16.70
2022-11-23T07:47:59.426Z,15.45
2022-11-23T07:58:04.182Z,15.60
2022-11-23T08:08:06.989Z,16.42
2022-11-23T08:18:11.542Z,18.38
2022-11-23T08:28:14.258Z,13.60
2022-11-23T08:38:18.278Z,25.80
2022-11-23T08:48:20.903Z,14.20
2022-11-23T08:58:24.915Z,17.63
2022-11-23T09:08:27.612Z,21.35
2022-11-23T09:18:31.835Z,16.98
2022-11-23T09:28:34.666Z,20.42
2022-11-23T09:38:55.659Z,12.23
2022-11-23T09:49:21.290Z,15.13
2022-11-23T09:59:40.333Z,10.45
2022-11-23T10:09:52.740Z,10.38
2022-11-23T10:20:12.015Z,15.40
2022-11-23T10:30:16.770Z,13.27
2022-11-23T10:40:25.020Z,15.60
2022-11-23T10:50:30.037Z,15.02
2022-11-23T11:00:34.150Z,19.00
2022-11-23T11:10:40.163Z,13.18
2022-11-23T11:20:46.579Z,13.45
2022-11-23T11:30:59.467Z,12.73
2022-11-23T11:41:08.411Z,7.93
2022-11-23T11:51:19.035Z,14.38
2022-11-23T12:01:33.564Z,14.20
2022-11-23T12:11:36.549Z,10.13
2022-11-23T12:22:01.961Z,8.18
2022-11-23T12:32:13.911Z,7.43
2022-11-23T12:42:24.736Z,10.02
2022-11-23T12:52:43.581Z,7.47
2022-11-23T13:03:31.272Z,9.05
2022-11-23T13:13:59.268Z,9.10
2022-11-23T13:24:02.059Z,8.30
2022-11-23T13:34:51.003Z,12.25
2022-11-23T13:45:25.955Z,8.83
2022-11-23T13:55:35.417Z,8.02
2022-11-23T14:05:57.830Z,9.37
2022-11-23T14:16:04.458Z,7.38
2022-11-23T14:26:22.452Z,6.95
2022-11-23T14:36:38.797Z,6.55
2022-11-23T14:47:02.411Z,8.43
2022-11-23T14:57:12.803Z,6.63
2022-11-23T15:07:19.798Z,8.65
2022-11-23T15:17:24.619Z,10.80
2022-11-23T15:27:29.332Z,7.80
2022-11-23T15:37:35.596Z,7.90
2022-11-23T15:47:39.563Z,7.90
2022-11-23T15:57:43.802Z,8.43
2022-11-23T16:07:55.205Z,11.77
2022-11-23T16:18:00.050Z,12.27
2022-11-23T16:28:05.044Z,13.50
2022-11-23T16:38:09.155Z,7.40
2022-11-23T16:48:37.844Z,8.35
2022-11-23T16:58:41.966Z,6.63
2022-11-23T17:08:45.366Z,7.15
2022-11-23T17:18:49.433Z,6.93
2022-11-23T17:28:52.059Z,15.32
2022-11-23T17:38:56.219Z,4.25
2022-11-23T17:49:02.270Z,12.18
2022-11-23T17:59:07.608Z,5.53
2022-11-23T18:09:11.832Z,3.40
2022-11-23T18:19:16.137Z,8.55
2022-11-23T18:29:18.805Z,6.55
2022-11-23T18:39:24.050Z,7.72
2022-11-23T18:49:27.323Z,5.60
2022-11-23T18:59:56.909Z,10.27
2022-11-23T19:09:58.457Z,12.32
2022-11-23T19:20:05.235Z,7.40
2022-11-23T19:30:09.848Z,8.32
2022-11-23T19:40:14.271Z,9.07
2022-11-23T19:50:17.716Z,10.27
2022-11-23T20:00:22.305Z,8.45
2022-11-23T20:10:25.441Z,6.05
2022-11-23T20:20:29.499Z,4.78
2022-11-23T20:30:33.703Z,6.05
2022-11-23T20:40:38.610Z,10.80
2022-11-23T20:50:41.598Z,7.22
2022-11-23T21:00:51.336Z,4.15
2022-11-23T21:11:12.397Z,9.67
2022-11-23T21:21:16.536Z,8.75
2022-11-23T21:31:19.339Z,8.98
2022-11-23T21:41:23.952Z,10.25
2022-11-23T21:51:29.679Z,9.30
2022-11-23T22:01:36.316Z,12.45
2022-11-23T22:11:41.632Z,13.02
2022-11-23T22:21:46.673Z,8.40
2022-11-23T22:31:49.380Z,11.93
2022-11-23T22:41:53.482Z,10.65
2022-11-23T22:51:56.141Z,11.82
2022-11-23T23:02:00.111Z,13.55
2022-11-23T23:12:02.843Z,10.38
2022-11-23T23:22:07.596Z,13.07
2022-11-23T23:32:10.294Z,15.18
2022-11-23T23:42:14.379Z,18.15
2022-11-23T23:52:17.067Z,12.35
